createdAt,value
2019-02-18T00:00:54.698Z,12.30
2019-02-18T00:03:21.572Z,11.33
2019-02-18T00:05:48.430Z,10.80
2019-02-18T00:08:15.301Z,10.60
2019-02-18T00:10:42.143Z,10.30
2019-02-18T00:13:09.025Z,11.50
2019-02-18T00:15:35.883Z,11.10
2019-02-18T00:18:02.775Z,11.23
2019-02-18T00:20:29.642Z,10.43
2019-02-18T00:22:56.511Z,10.57
2019-02-18T00:25:23.374Z,12.07
2019-02-18T00:27:50.255Z,10.27
2019-02-18T00:30:17.122Z,10.20
2019-02-18T00:32:44.006Z,10.63
2019-02-18T00:35:10.858Z,10.50
2019-02-18T00:37:37.718Z,10.33
2019-02-18T00:40:04.742Z,11.30
2019-02-18T00:42:31.610Z,10.80
2019-02-18T00:44:58.478Z,11.87
2019-02-18T00:47:25.354Z,10.80
2019-02-18T00:49:52.214Z,10.80
2019-02-18T00:52:19.106Z,10.87
2019-02-18T00:54:45.954Z,10.90
2019-02-18T00:57:12.844Z,10.30
2019-02-18T00:59:39.704Z,10.32
2019-02-18T01:02:06.587Z,10.33
2019-02-18T01:04:33.433Z,10.60
2019-02-18T01:07:00.329Z,10.13
2019-02-18T01:09:27.347Z,9.67
2019-02-18T01:11:54.218Z,9.20
2019-02-18T01:14:21.068Z,10.30
2019-02-18T01:16:47.913Z,10.10
2019-02-18T01:19:14.782Z,9.87
2019-02-18T01:21:41.634Z,10.60
2019-02-18T01:24:08.505Z,8.67
2019-02-18T01:26:35.359Z,8.17
2019-02-18T01:29:02.231Z,9.90
2019-02-18T01:31:29.090Z,9.73
2019-02-18T01:33:55.967Z,9.50
2019-02-18T01:36:23.212Z,9.90
2019-02-18T01:38:49.691Z,9.47
2019-02-18T01:41:16.551Z,9.93
2019-02-18T01:43:43.414Z,9.47
2019-02-18T01:46:10.262Z,9.17
2019-02-18T01:48:37.130Z,10.30
2019-02-18T01:51:03.999Z,9.67
2019-02-18T01:53:30.870Z,11.47
2019-02-18T01:55:57.728Z,11.30
2019-02-18T01:58:24.586Z,10.48
2019-02-18T02:00:51.455Z,9.80
2019-02-18T02:03:18.324Z,11.73
2019-02-18T02:05:45.169Z,10.67
2019-02-18T02:08:12.022Z,10.45
2019-02-18T02:10:38.876Z,10.00
2019-02-18T02:13:17.379Z,9.63
2019-02-18T02:15:44.222Z,9.30
2019-02-18T02:18:11.103Z,9.60
2019-02-18T02:20:37.962Z,9.77
2019-02-18T02:23:04.851Z,8.80
2019-02-18T02:25:31.706Z,9.85
2019-02-18T02:27:58.605Z,10.50
2019-02-18T02:30:25.460Z,10.18
2019-02-18T02:32:52.336Z,10.23
2019-02-18T02:35:19.193Z,10.60
2019-02-18T02:37:46.033Z,11.33
2019-02-18T02:40:12.904Z,11.33
2019-02-18T02:42:39.751Z,11.68
2019-02-18T02:45:06.696Z,11.13
2019-02-18T02:47:33.559Z,11.48
2019-02-18T02:50:00.443Z,11.45
2019-02-18T02:52:27.296Z,10.47
2019-02-18T02:54:54.154Z,11.48
2019-02-18T02:57:21.023Z,10.63
2019-02-18T02:59:47.882Z,10.90
2019-02-18T03:02:14.739Z,10.50
2019-02-18T03:04:41.608Z,10.85
2019-02-18T03:07:08.456Z,11.20
2019-02-18T03:09:35.342Z,9.83
2019-02-18T03:12:02.186Z,11.00
2019-02-18T03:14:29.060Z,11.45
2019-02-18T03:16:55.903Z,11.33
2019-02-18T03:19:22.766Z,10.72
2019-02-18T03:21:49.622Z,9.67
2019-02-18T03:24:16.474Z,10.30
2019-02-18T03:26:43.326Z,10.25
2019-02-18T03:29:23.218Z,10.10
2019-02-18T03:31:50.060Z,10.28
2019-02-18T03:34:23.559Z,9.10
2019-02-18T03:36:50.411Z,10.08
2019-02-18T03:39:17.278Z,9.67
2019-02-18T03:41:44.158Z,10.48
2019-02-18T03:44:11.070Z,10.80
2019-02-18T03:46:37.919Z,10.68
2019-02-18T03:49:04.822Z,10.40
2019-02-18T03:51:31.683Z,10.10
2019-02-18T03:53:58.553Z,10.53
2019-02-18T03:56:25.400Z,10.50
2019-02-18T03:58:52.286Z,10.03
2019-02-18T04:01:19.134Z,10.00
2019-02-18T04:03:46.023Z,10.40
2019-02-18T04:06:12.883Z,10.32
2019-02-18T04:08:42.815Z,9.73
2019-02-18T04:11:06.594Z,10.13
2019-02-18T04:13:33.462Z,9.80
2019-02-18T04:16:00.350Z,9.43
2019-02-18T04:18:27.211Z,9.90
2019-02-18T04:20:54.078Z,9.77
2019-02-18T04:23:20.911Z,9.15
2019-02-18T04:25:47.780Z,8.83
2019-02-18T04:28:14.642Z,8.93
2019-02-18T04:30:41.542Z,10.63
2019-02-18T04:33:08.401Z,10.70
2019-02-18T04:35:35.286Z,12.10
2019-02-18T04:38:02.158Z,10.30
2019-02-18T04:40:29.015Z,10.85
2019-02-18T04:42:55.869Z,10.30
2019-02-18T04:45:22.762Z,10.13
2019-02-18T04:47:49.655Z,10.10
2019-02-18T04:50:16.515Z,10.10
2019-02-18T04:52:43.383Z,10.20
2019-02-18T04:55:10.227Z,9.30
2019-02-18T04:57:37.108Z,9.30
2019-02-18T05:00:04.570Z,9.20
2019-02-18T05:02:31.440Z,9.30
2019-02-18T05:04:58.287Z,9.53
2019-02-18T05:07:25.173Z,10.40
2019-02-18T05:09:52.040Z,9.40
2019-02-18T05:12:18.918Z,10.10
2019-02-18T05:14:45.792Z,9.90
2019-02-18T05:17:12.674Z,9.13
2019-02-18T05:19:39.561Z,10.80
2019-02-18T05:22:06.446Z,10.80
2019-02-18T05:24:33.383Z,10.00
2019-02-18T05:27:00.428Z,11.12
2019-02-18T05:29:27.293Z,10.55
2019-02-18T05:31:54.252Z,9.47
2019-02-18T05:34:21.115Z,9.95
2019-02-18T05:36:47.995Z,11.40
2019-02-18T05:39:18.201Z,10.70
2019-02-18T05:41:41.731Z,10.50
2019-02-18T05:44:08.612Z,10.40
2019-02-18T05:46:35.494Z,10.13
2019-02-18T05:49:02.379Z,11.07
2019-02-18T05:51:29.286Z,11.10
2019-02-18T05:53:56.264Z,9.60
2019-02-18T05:56:23.122Z,10.45
2019-02-18T05:58:50.010Z,10.67
2019-02-18T06:01:17.187Z,11.60
2019-02-18T06:03:44.063Z,9.93
2019-02-18T06:06:10.918Z,9.87
2019-02-18T06:08:37.794Z,9.28
2019-02-18T06:11:04.651Z,10.70
2019-02-18T06:13:31.547Z,10.83
2019-02-18T06:15:58.419Z,10.20
2019-02-18T06:18:25.314Z,11.10
2019-02-18T06:20:52.190Z,13.45
2019-02-18T06:23:19.080Z,11.80
2019-02-18T06:25:45.952Z,12.60
2019-02-18T06:28:12.843Z,13.60
2019-02-18T06:30:39.723Z,12.97
2019-02-18T06:33:06.593Z,13.78
2019-02-18T06:35:33.459Z,13.68
2019-02-18T06:38:00.391Z,13.20
2019-02-18T06:40:27.313Z,13.58
2019-02-18T06:42:54.211Z,13.00
2019-02-18T06:45:40.677Z,12.77
2019-02-18T06:48:11.188Z,13.80
2019-02-18T06:50:38.043Z,12.30
2019-02-18T06:53:04.939Z,12.37
2019-02-18T06:55:31.825Z,12.40
2019-02-18T06:58:02.773Z,12.28
2019-02-18T07:00:52.161Z,12.90
2019-02-18T07:03:24.452Z,12.53
2019-02-18T07:05:56.573Z,10.80
2019-02-18T07:08:44.059Z,13.50
2019-02-18T07:11:17.490Z,13.80
2019-02-18T07:13:44.495Z,12.70
2019-02-18T07:16:11.419Z,13.53
2019-02-18T07:18:38.298Z,15.37
2019-02-18T07:21:05.155Z,18.02
2019-02-18T07:23:32.042Z,16.30
2019-02-18T07:25:58.914Z,15.15
2019-02-18T07:28:25.789Z,15.20
2019-02-18T07:30:52.631Z,16.90
2019-02-18T07:33:19.498Z,16.00
2019-02-18T07:35:46.360Z,16.82
2019-02-18T07:38:13.259Z,15.30
2019-02-18T07:40:40.122Z,15.83
2019-02-18T07:43:07.019Z,17.07
2019-02-18T07:45:33.894Z,18.15
2019-02-18T07:48:00.803Z,18.17
2019-02-18T07:50:27.686Z,18.00
2019-02-18T07:52:54.585Z,18.20
2019-02-18T07:55:21.472Z,15.80
2019-02-18T07:57:48.383Z,15.23
2019-02-18T08:00:15.252Z,15.77
2019-02-18T08:02:42.134Z,14.70
2019-02-18T08:05:09.027Z,15.50
2019-02-18T08:07:35.870Z,16.82
2019-02-18T08:10:11.826Z,16.30
2019-02-18T08:12:29.616Z,15.80
2019-02-18T08:14:56.499Z,18.25
2019-02-18T08:17:23.364Z,17.80
2019-02-18T08:19:50.248Z,18.52
2019-02-18T08:22:17.119Z,18.50
2019-02-18T08:24:44.015Z,18.10
2019-02-18T08:27:10.870Z,22.10
2019-02-18T08:29:37.738Z,19.33
2019-02-18T08:32:04.602Z,20.68
2019-02-18T08:34:31.475Z,20.00
2019-02-18T08:36:58.335Z,18.53
2019-02-18T08:39:25.226Z,17.00
2019-02-18T08:41:52.068Z,17.67
2019-02-18T08:44:18.951Z,17.87
2019-02-18T08:46:45.804Z,16.47
2019-02-18T08:49:12.680Z,17.93
2019-02-18T08:51:39.557Z,17.37
2019-02-18T08:54:06.443Z,15.23
2019-02-18T08:56:33.310Z,15.73
2019-02-18T08:59:00.194Z,16.87
2019-02-18T09:01:27.111Z,15.83
2019-02-18T09:03:53.991Z,15.90
2019-02-18T09:06:20.846Z,15.00
2019-02-18T09:08:47.743Z,13.70
2019-02-18T09:11:14.620Z,14.53
2019-02-18T09:13:41.506Z,14.23
2019-02-18T09:16:08.386Z,13.80
2019-02-18T09:18:35.274Z,13.03
2019-02-18T09:21:02.130Z,13.57
2019-02-18T09:23:36.509Z,14.23
2019-02-18T09:26:04.267Z,13.80
2019-02-18T09:28:31.147Z,12.53
2019-02-18T09:30:58.004Z,11.83
2019-02-18T09:33:24.870Z,13.50
2019-02-18T09:35:51.762Z,12.57
2019-02-18T09:38:25.013Z,12.37
2019-02-18T09:40:50.551Z,11.80
2019-02-18T09:43:12.388Z,10.93
2019-02-18T09:45:39.230Z,11.40
2019-02-18T09:48:06.115Z,10.53
2019-02-18T09:50:32.959Z,10.87
2019-02-18T09:53:02.335Z,9.70
2019-02-18T09:55:26.708Z,10.20
2019-02-18T09:57:53.560Z,10.43
2019-02-18T10:00:20.429Z,10.60
2019-02-18T10:02:49.430Z,9.63
2019-02-18T10:05:16.266Z,9.57
2019-02-18T10:07:43.107Z,9.00
2019-02-18T10:10:09.967Z,10.10
2019-02-18T10:12:36.823Z,9.23
2019-02-18T10:15:03.811Z,8.93
2019-02-18T10:17:30.663Z,9.17
2019-02-18T10:19:57.539Z,9.60
2019-02-18T10:22:24.370Z,8.90
2019-02-18T10:24:51.278Z,9.10
2019-02-18T10:27:18.082Z,7.40
2019-02-18T10:29:44.962Z,8.10
2019-02-18T10:32:11.791Z,8.37
2019-02-18T10:34:38.643Z,8.20
2019-02-18T10:37:05.499Z,7.93
2019-02-18T10:39:32.372Z,9.28
2019-02-18T10:41:59.221Z,8.30
2019-02-18T10:44:26.214Z,8.93
2019-02-18T10:46:53.058Z,7.63
2019-02-18T10:49:21.287Z,8.00
2019-02-18T10:51:46.882Z,8.03
2019-02-18T10:54:13.738Z,8.20
2019-02-18T10:56:40.571Z,7.30
2019-02-18T10:59:07.442Z,7.37
2019-02-18T11:01:34.284Z,7.77
2019-02-18T11:04:01.144Z,6.93
2019-02-18T11:06:27.983Z,6.67
2019-02-18T11:08:54.827Z,6.70
2019-02-18T11:11:21.695Z,6.70
2019-02-18T11:13:48.539Z,6.90
2019-02-18T11:16:15.430Z,7.72
2019-02-18T11:18:42.327Z,8.38
2019-02-18T11:21:09.300Z,7.50
2019-02-18T11:23:36.158Z,7.80
2019-02-18T11:26:03.030Z,7.37
2019-02-18T11:28:30.135Z,7.50
2019-02-18T11:30:57.014Z,8.07
2019-02-18T11:33:23.866Z,8.13
2019-02-18T11:35:50.720Z,7.53
2019-02-18T11:38:17.573Z,7.33
2019-02-18T11:40:44.430Z,8.07
2019-02-18T11:43:11.294Z,6.97
2019-02-18T11:45:38.147Z,8.33
2019-02-18T11:48:04.986Z,7.60
2019-02-18T11:50:31.863Z,8.20
2019-02-18T11:52:58.722Z,7.27
2019-02-18T11:55:25.571Z,7.87
2019-02-18T11:57:52.412Z,7.27
2019-02-18T12:00:19.276Z,6.90
2019-02-18T12:02:46.121Z,7.70
2019-02-18T12:05:13.024Z,7.30
2019-02-18T12:07:39.879Z,7.62
2019-02-18T12:10:07.579Z,7.20
2019-02-18T12:12:34.431Z,6.23
2019-02-18T12:15:01.303Z,6.37
2019-02-18T12:17:28.776Z,6.20
2019-02-18T12:19:55.643Z,6.20
2019-02-18T12:22:22.489Z,6.30
2019-02-18T12:24:49.323Z,6.27
2019-02-18T12:27:16.222Z,7.10
2019-02-18T12:29:43.094Z,6.70
2019-02-18T12:32:09.959Z,6.77
2019-02-18T12:34:36.815Z,7.07
2019-02-18T12:37:03.682Z,7.33
2019-02-18T12:39:30.544Z,7.00
2019-02-18T12:41:57.411Z,6.90
2019-02-18T12:44:24.259Z,6.80
2019-02-18T12:46:51.212Z,6.70
2019-02-18T12:49:18.110Z,6.57
2019-02-18T12:51:45.003Z,7.37
2019-02-18T12:54:11.838Z,7.30
2019-02-18T12:56:38.795Z,6.07
2019-02-18T12:59:05.655Z,6.50
2019-02-18T13:01:32.536Z,6.50
2019-02-18T13:03:59.389Z,6.17
2019-02-18T13:06:26.248Z,6.00
2019-02-18T13:08:53.088Z,6.40
2019-02-18T13:11:19.951Z,6.50
2019-02-18T13:13:46.802Z,6.03
2019-02-18T13:16:13.671Z,5.87
2019-02-18T13:18:40.523Z,5.60
2019-02-18T13:21:07.410Z,6.00
2019-02-18T13:23:34.258Z,5.97
2019-02-18T13:26:01.135Z,6.07
2019-02-18T13:28:27.988Z,5.60
2019-02-18T13:30:54.859Z,5.63
2019-02-18T13:33:21.695Z,5.60
2019-02-18T13:35:48.844Z,5.57
2019-02-18T13:38:15.406Z,6.17
2019-02-18T13:40:42.279Z,5.60
2019-02-18T13:43:09.119Z,5.50
2019-02-18T13:45:35.966Z,6.07
2019-02-18T13:48:02.855Z,5.50
2019-02-18T13:50:29.707Z,5.30
2019-02-18T13:52:56.663Z,5.37
2019-02-18T13:55:23.514Z,5.27
2019-02-18T13:57:50.383Z,5.53
2019-02-18T14:00:18.562Z,6.17
2019-02-18T14:02:45.986Z,5.60
2019-02-18T14:05:12.839Z,5.53
2019-02-18T14:07:39.719Z,5.60
2019-02-18T14:10:06.595Z,5.20
2019-02-18T14:12:33.471Z,5.53
2019-02-18T14:15:00.333Z,5.30
2019-02-18T14:17:27.247Z,4.20
2019-02-18T14:19:54.066Z,4.20
2019-02-18T14:22:20.950Z,4.17
2019-02-18T14:24:47.879Z,3.90
2019-02-18T14:27:14.842Z,3.97
2019-02-18T14:29:41.779Z,4.12
2019-02-18T14:32:08.752Z,3.80
2019-02-18T14:34:35.602Z,3.67
2019-02-18T14:37:02.514Z,3.57
2019-02-18T14:39:29.523Z,3.70
2019-02-18T14:41:56.359Z,3.50
2019-02-18T14:44:23.346Z,3.13
2019-02-18T14:46:50.239Z,3.70
2019-02-18T14:49:17.090Z,3.87
2019-02-18T14:51:43.959Z,3.97
2019-02-18T14:54:10.826Z,3.40
2019-02-18T14:56:37.766Z,4.20
2019-02-18T14:59:04.795Z,4.63
2019-02-18T15:01:31.679Z,4.70
2019-02-18T15:03:58.555Z,4.20
2019-02-18T15:06:25.431Z,3.70
2019-02-18T15:08:52.295Z,4.53
2019-02-18T15:11:19.170Z,4.50
2019-02-18T15:13:46.042Z,4.33
2019-02-18T15:16:12.975Z,4.37
2019-02-18T15:18:39.835Z,4.00
2019-02-18T15:21:06.723Z,4.13
2019-02-18T15:23:33.576Z,4.20
2019-02-18T15:26:00.439Z,3.53
2019-02-18T15:28:27.322Z,3.90
2019-02-18T15:30:54.226Z,3.97
2019-02-18T15:33:21.103Z,3.70
2019-02-18T15:35:48.022Z,4.00
2019-02-18T15:38:14.891Z,3.40
2019-02-18T15:40:41.752Z,3.80
2019-02-18T15:43:08.627Z,4.20
2019-02-18T15:45:35.519Z,4.20
2019-02-18T15:48:02.403Z,3.80
2019-02-18T15:50:29.249Z,3.90
2019-02-18T15:52:56.122Z,3.63
2019-02-18T15:55:22.974Z,3.57
2019-02-18T15:57:49.834Z,3.70
2019-02-18T16:00:19.160Z,3.83
2019-02-18T16:02:46.009Z,4.30
2019-02-18T16:05:12.908Z,4.40
2019-02-18T16:07:39.871Z,4.27
2019-02-18T16:10:07.160Z,3.90
2019-02-18T16:12:34.109Z,5.33
2019-02-18T16:15:00.996Z,4.43
2019-02-18T16:17:27.955Z,4.63
2019-02-18T16:19:54.887Z,5.53
2019-02-18T16:22:21.854Z,5.07
2019-02-18T16:24:48.700Z,7.30
2019-02-18T16:27:15.563Z,7.42
2019-02-18T16:29:42.500Z,7.37
2019-02-18T16:32:09.354Z,5.73
2019-02-18T16:34:36.247Z,5.77
2019-02-18T16:37:03.220Z,4.70
2019-02-18T16:39:30.071Z,4.73
2019-02-18T16:41:56.927Z,5.03
2019-02-18T16:44:23.819Z,5.90
2019-02-18T16:46:50.685Z,4.60
2019-02-18T16:49:17.517Z,5.50
2019-02-18T16:51:44.384Z,4.93
2019-02-18T16:54:11.303Z,4.40
2019-02-18T16:56:38.187Z,4.70
2019-02-18T16:59:05.056Z,4.60
2019-02-18T17:01:31.885Z,4.60
2019-02-18T17:03:58.742Z,4.00
2019-02-18T17:06:25.600Z,4.20
2019-02-18T17:08:52.519Z,4.83
2019-02-18T17:11:19.424Z,6.23
2019-02-18T17:13:46.512Z,21.47
2019-02-18T17:16:13.666Z,37.40
2019-02-18T17:18:40.536Z,19.73
2019-02-18T17:21:07.465Z,14.30
2019-02-18T17:23:34.395Z,12.30
2019-02-18T17:26:01.242Z,7.47
2019-02-18T17:28:28.119Z,6.20
2019-02-18T17:30:55.061Z,5.90
2019-02-18T17:33:21.941Z,6.00
2019-02-18T17:35:48.799Z,6.63
2019-02-18T17:38:15.736Z,6.13
2019-02-18T17:40:42.575Z,6.60
2019-02-18T17:43:16.310Z,7.30
2019-02-18T17:45:36.422Z,6.50
2019-02-18T17:48:03.307Z,6.77
2019-02-18T17:50:30.256Z,7.60
2019-02-18T17:52:58.214Z,6.20
2019-02-18T17:55:23.979Z,8.40
2019-02-18T17:57:50.844Z,9.30
2019-02-18T18:00:18.075Z,8.97
2019-02-18T18:02:44.965Z,12.03
2019-02-18T18:05:11.810Z,11.73
2019-02-18T18:10:28.818Z,7.20
2019-02-18T18:12:55.710Z,6.87
2019-02-18T18:15:22.573Z,7.33
2019-02-18T18:17:49.686Z,6.87
2019-02-18T18:20:16.534Z,9.07
2019-02-18T18:22:43.411Z,8.77
2019-02-18T18:25:10.318Z,8.57
2019-02-18T18:27:37.193Z,9.93
2019-02-18T18:30:04.239Z,10.37
2019-02-18T18:32:31.382Z,12.67
2019-02-18T18:34:58.279Z,11.77
2019-02-18T18:37:25.126Z,8.77
2019-02-18T18:39:52.006Z,8.80
2019-02-18T18:42:18.870Z,7.37
2019-02-18T18:44:46.483Z,11.17
2019-02-18T18:47:13.379Z,9.30
2019-02-18T18:49:40.371Z,10.23
2019-02-18T18:52:07.282Z,8.60
2019-02-18T18:54:34.239Z,9.43
2019-02-18T18:57:01.112Z,7.40
2019-02-18T18:59:27.984Z,7.70
2019-02-18T19:01:54.877Z,8.73
2019-02-18T19:04:21.746Z,7.90
2019-02-18T19:06:48.654Z,8.33
2019-02-18T19:09:15.539Z,7.50
2019-02-18T19:11:42.403Z,9.37
2019-02-18T19:14:09.319Z,11.77
2019-02-18T19:16:36.208Z,9.77
2019-02-18T19:19:03.070Z,9.53
2019-02-18T19:21:29.961Z,9.30
2019-02-18T19:23:56.832Z,7.93
2019-02-18T19:26:23.707Z,8.50
2019-02-18T19:28:50.579Z,8.13
2019-02-18T19:31:17.465Z,9.37
2019-02-18T19:33:44.460Z,8.50
2019-02-18T19:36:11.444Z,8.13
2019-02-18T19:38:38.363Z,8.47
2019-02-18T19:41:05.247Z,9.00
2019-02-18T19:43:32.129Z,8.77
2019-02-18T19:45:59.060Z,8.70
2019-02-18T19:48:25.919Z,9.03
2019-02-18T19:50:52.784Z,9.27
2019-02-18T19:53:19.743Z,10.80
2019-02-18T19:55:46.634Z,10.13
2019-02-18T19:58:13.491Z,9.70
2019-02-18T20:00:40.386Z,9.87
2019-02-18T20:03:07.395Z,9.20
2019-02-18T20:05:37.810Z,10.30
2019-02-18T20:08:04.691Z,9.98
2019-02-18T20:10:31.648Z,9.80
2019-02-18T20:12:58.514Z,10.30
2019-02-18T20:15:25.401Z,9.80
2019-02-18T20:17:52.330Z,10.50
2019-02-18T20:20:19.210Z,11.67
2019-02-18T20:22:46.128Z,12.17
2019-02-18T20:25:13.010Z,12.40
2019-02-18T20:27:39.894Z,11.40
2019-02-18T20:30:07.302Z,11.97
2019-02-18T20:32:34.183Z,11.50
2019-02-18T20:35:01.124Z,11.10
2019-02-18T20:37:27.950Z,11.40
2019-02-18T20:39:54.832Z,9.73
2019-02-18T20:42:21.779Z,12.10
2019-02-18T20:44:48.693Z,11.93
2019-02-18T20:47:15.559Z,11.00
2019-02-18T20:49:42.483Z,10.90
2019-02-18T20:52:09.348Z,11.70
2019-02-18T20:54:36.330Z,11.77
2019-02-18T20:57:03.212Z,11.53
2019-02-18T20:59:30.102Z,12.10
2019-02-18T21:01:56.973Z,12.63
2019-02-18T21:04:23.847Z,12.30
2019-02-18T21:06:50.751Z,14.17
2019-02-18T21:09:17.598Z,13.80
2019-02-18T21:11:44.492Z,13.10
2019-02-18T21:14:16.071Z,15.93
2019-02-18T21:16:38.234Z,15.87
2019-02-18T21:19:05.122Z,14.13
2019-02-18T21:21:32.002Z,12.50
2019-02-18T21:23:58.974Z,10.70
2019-02-18T21:26:25.879Z,11.20
2019-02-18T21:28:52.754Z,10.73
2019-02-18T21:31:21.079Z,17.23
2019-02-18T21:33:47.946Z,16.63
2019-02-18T21:36:14.840Z,13.90
2019-02-18T21:38:41.692Z,13.50
2019-02-18T21:41:08.571Z,14.33
2019-02-18T21:43:35.434Z,16.62
2019-02-18T21:46:02.415Z,15.43
2019-02-18T21:48:29.277Z,12.80
2019-02-18T21:50:56.242Z,12.40
2019-02-18T21:53:23.140Z,13.90
2019-02-18T21:55:49.990Z,14.30
2019-02-18T21:58:16.855Z,12.90
2019-02-18T22:00:43.809Z,12.77
2019-02-18T22:03:10.655Z,14.47
2019-02-18T22:05:37.562Z,12.93
2019-02-18T22:08:04.431Z,12.17
2019-02-18T22:10:31.302Z,10.97
2019-02-18T22:12:58.211Z,11.83
2019-02-18T22:15:25.098Z,12.40
2019-02-18T22:17:51.968Z,13.30
2019-02-18T22:20:18.869Z,13.03
2019-02-18T22:22:45.758Z,11.23
2019-02-18T22:25:12.651Z,11.10
2019-02-18T22:27:39.559Z,10.93
2019-02-18T22:30:08.091Z,12.00
2019-02-18T22:32:34.994Z,9.20
2019-02-18T22:35:01.885Z,10.70
2019-02-18T22:37:28.768Z,9.40
2019-02-18T22:39:55.627Z,9.70
2019-02-18T22:42:22.519Z,9.90
2019-02-18T22:44:49.377Z,10.67
2019-02-18T22:47:16.289Z,9.80
2019-02-18T22:49:43.163Z,9.27
2019-02-18T22:52:10.075Z,8.80
2019-02-18T22:54:36.954Z,9.67
2019-02-18T22:57:03.843Z,8.80
2019-02-18T22:59:30.702Z,8.83
2019-02-18T23:01:57.605Z,9.23
2019-02-18T23:04:24.502Z,9.95
2019-02-18T23:06:52.690Z,9.47
2019-02-18T23:09:19.748Z,9.40
2019-02-18T23:11:46.630Z,9.80
2019-02-18T23:14:13.506Z,9.87
2019-02-18T23:16:40.398Z,10.13
2019-02-18T23:19:07.278Z,10.50
2019-02-18T23:21:34.162Z,10.13
2019-02-18T23:24:01.047Z,9.50
2019-02-18T23:26:27.927Z,10.77
2019-02-18T23:28:54.840Z,10.97
2019-02-18T23:31:21.710Z,11.03
2019-02-18T23:33:48.592Z,11.30
2019-02-18T23:36:15.483Z,11.17
2019-02-18T23:38:42.357Z,10.10
2019-02-18T23:41:09.274Z,10.70
2019-02-18T23:43:36.141Z,11.17
2019-02-18T23:46:03.038Z,10.40
2019-02-18T23:48:29.906Z,10.57
2019-02-18T23:50:56.773Z,11.27
2019-02-18T23:53:23.638Z,11.70
2019-02-18T23:55:50.524Z,11.85
2019-02-18T23:58:17.382Z,11.80
